createdAt,value
2023-03-13T00:00:27.737Z,4.97
2023-03-13T00:03:14.066Z,5.13
2023-03-13T00:06:00.764Z,4.38
2023-03-13T00:08:47.143Z,5.00
2023-03-13T00:11:33.691Z,5.22
2023-03-13T00:14:20.406Z,4.50
2023-03-13T00:17:08.291Z,4.35
2023-03-13T00:19:55.705Z,4.15
2023-03-13T00:22:42.437Z,5.00
2023-03-13T00:25:29.015Z,4.80
2023-03-13T00:28:15.293Z,4.20
2023-03-13T00:31:02.919Z,5.18
2023-03-13T00:33:52.830Z,4.68
2023-03-13T00:36:39.044Z,5.35
2023-03-13T00:39:25.274Z,5.03
2023-03-13T00:42:11.787Z,5.57
2023-03-13T00:44:58.149Z,5.30
2023-03-13T00:47:44.291Z,5.60
2023-03-13T00:50:31.905Z,5.05
2023-03-13T00:53:18.504Z,5.05
2023-03-13T00:56:06.629Z,6.30
2023-03-13T00:58:53.226Z,6.03
2023-03-13T01:01:39.753Z,6.65
2023-03-13T01:04:26.349Z,5.93
2023-03-13T01:07:14.679Z,6.82
2023-03-13T01:10:00.813Z,6.38
2023-03-13T01:12:46.890Z,6.88
2023-03-13T01:15:35.819Z,7.13
2023-03-13T01:18:22.445Z,6.97
2023-03-13T01:21:09.546Z,7.40
2023-03-13T01:23:58.025Z,6.47
2023-03-13T01:26:44.156Z,7.70
2023-03-13T01:29:30.328Z,7.18
2023-03-13T01:32:16.569Z,7.43
2023-03-13T01:35:02.908Z,7.57
2023-03-13T01:37:49.422Z,6.93
2023-03-13T01:40:42.771Z,7.68
2023-03-13T01:43:30.434Z,8.80
2023-03-13T01:46:21.509Z,7.82
2023-03-13T01:49:24.632Z,8.20
2023-03-13T01:52:31.123Z,9.18
2023-03-13T01:55:24.669Z,8.30
2023-03-13T01:58:14.344Z,8.52
2023-03-13T02:01:01.706Z,8.27
2023-03-13T02:03:51.200Z,8.07
2023-03-13T02:06:41.661Z,8.15
2023-03-13T02:09:31.592Z,7.90
2023-03-13T02:12:25.333Z,8.27
2023-03-13T02:15:16.141Z,8.65
2023-03-13T02:18:02.855Z,9.57
2023-03-13T02:20:53.230Z,11.23
2023-03-13T02:26:30.757Z,11.05
2023-03-13T02:29:19.115Z,11.45
2023-03-13T02:32:06.152Z,11.68
2023-03-13T02:34:56.996Z,12.43
2023-03-13T02:37:45.668Z,14.40
2023-03-13T02:40:38.574Z,14.25
2023-03-13T02:43:31.494Z,15.05
2023-03-13T02:46:21.196Z,16.13
2023-03-13T02:49:21.617Z,15.98
2023-03-13T02:52:15.002Z,16.08
2023-03-13T02:55:05.912Z,17.13
2023-03-13T02:57:52.193Z,16.02
2023-03-13T03:00:39.742Z,16.17
2023-03-13T03:03:26.120Z,16.58
2023-03-13T03:06:12.219Z,16.55
2023-03-13T03:08:58.810Z,17.33
2023-03-13T03:11:47.298Z,16.65
2023-03-13T03:14:35.500Z,16.13
2023-03-13T03:17:23.902Z,15.45
2023-03-13T03:20:12.883Z,14.93
2023-03-13T03:23:02.226Z,15.10
2023-03-13T03:25:48.324Z,12.90
2023-03-13T03:28:34.926Z,11.82
2023-03-13T03:31:25.686Z,12.27
2023-03-13T03:34:13.777Z,10.88
2023-03-13T03:37:00.084Z,10.98
2023-03-13T03:39:48.314Z,9.90
2023-03-13T03:42:35.103Z,9.90
2023-03-13T03:45:21.664Z,9.77
2023-03-13T03:48:08.277Z,8.80
2023-03-13T03:50:56.338Z,8.55
2023-03-13T03:53:42.850Z,8.05
2023-03-13T03:56:29.465Z,8.73
2023-03-13T03:59:17.189Z,8.85
2023-03-13T04:02:07.527Z,8.35
2023-03-13T04:04:54.529Z,8.45
2023-03-13T04:07:47.266Z,8.05
2023-03-13T04:10:33.321Z,7.70
2023-03-13T04:13:19.873Z,7.85
2023-03-13T04:16:08.477Z,7.55
2023-03-13T04:18:55.643Z,8.40
2023-03-13T04:21:44.754Z,7.97
2023-03-13T04:24:36.203Z,8.88
2023-03-13T04:27:22.895Z,9.23
2023-03-13T04:30:12.120Z,8.18
2023-03-13T04:33:30.815Z,8.13
2023-03-13T04:36:35.877Z,8.10
2023-03-13T04:39:51.780Z,7.53
2023-03-13T04:42:56.034Z,6.88
2023-03-13T04:46:01.265Z,6.50
2023-03-13T04:49:23.273Z,5.80
2023-03-13T04:52:32.741Z,5.90
2023-03-13T04:55:52.740Z,5.38
2023-03-13T04:59:04.971Z,4.65
2023-03-13T05:01:58.730Z,4.47
2023-03-13T05:05:03.898Z,4.90
2023-03-13T05:08:10.865Z,5.30
2023-03-13T05:11:12.344Z,4.53
2023-03-13T05:14:28.399Z,4.50
2023-03-13T05:17:33.372Z,4.45
2023-03-13T05:20:41.904Z,4.70
2023-03-13T05:23:27.977Z,3.83
2023-03-13T05:26:24.076Z,3.88
2023-03-13T05:29:42.477Z,3.90
2023-03-13T05:32:36.936Z,4.10
2023-03-13T05:35:58.549Z,4.03
2023-03-13T05:39:00.760Z,3.72
2023-03-13T05:42:13.074Z,3.95
2023-03-13T05:45:13.306Z,3.55
2023-03-13T05:48:23.753Z,3.53
2023-03-13T05:51:36.294Z,3.15
2023-03-13T05:54:45.206Z,3.80
2023-03-13T05:57:33.183Z,3.20
2023-03-13T06:00:37.698Z,3.03
2023-03-13T06:03:53.412Z,3.25
2023-03-13T06:06:39.914Z,3.20
2023-03-13T06:09:26.726Z,3.63
2023-03-13T06:12:14.970Z,3.28
2023-03-13T06:15:03.046Z,3.05
2023-03-13T06:18:13.889Z,3.78
2023-03-13T06:21:03.019Z,3.30
2023-03-13T06:23:49.134Z,3.13
2023-03-13T06:26:35.968Z,3.00
2023-03-13T06:29:23.978Z,3.13
2023-03-13T06:32:11.662Z,3.20
2023-03-13T06:34:58.072Z,3.20
2023-03-13T06:37:44.503Z,3.05
2023-03-13T06:40:31.092Z,4.20
2023-03-13T06:43:17.239Z,3.63
2023-03-13T06:46:05.730Z,3.15
2023-03-13T06:48:53.318Z,3.75
2023-03-13T06:51:40.142Z,3.20
2023-03-13T06:54:26.421Z,3.45
2023-03-13T06:57:12.957Z,2.80
2023-03-13T06:59:59.434Z,4.25
2023-03-13T07:02:45.565Z,2.92
2023-03-13T07:05:34.110Z,3.10
2023-03-13T07:08:20.847Z,3.40
2023-03-13T07:11:09.275Z,3.55
2023-03-13T07:14:10.139Z,3.45
2023-03-13T07:17:01.405Z,4.00
2023-03-13T07:19:47.584Z,4.00
2023-03-13T07:22:35.376Z,4.75
2023-03-13T07:25:21.807Z,5.13
2023-03-13T07:28:08.246Z,3.92
2023-03-13T07:30:54.848Z,4.30
2023-03-13T07:33:42.058Z,4.30
2023-03-13T07:36:29.819Z,4.18
2023-03-13T07:39:17.857Z,5.47
2023-03-13T07:42:04.080Z,5.47
2023-03-13T07:44:50.406Z,4.40
2023-03-13T07:47:36.980Z,5.20
2023-03-13T07:50:23.506Z,4.90
2023-03-13T07:53:10.040Z,4.60
2023-03-13T07:55:59.403Z,4.88
2023-03-13T07:58:46.520Z,3.88
2023-03-13T08:01:32.582Z,4.93
2023-03-13T08:04:19.549Z,4.40
2023-03-13T08:07:09.701Z,4.10
2023-03-13T08:09:55.880Z,4.75
2023-03-13T08:12:43.654Z,6.13
2023-03-13T08:15:30.266Z,3.95
2023-03-13T08:18:16.671Z,4.38
2023-03-13T08:21:04.819Z,5.30
2023-03-13T08:23:54.509Z,4.00
2023-03-13T08:26:43.713Z,5.88
2023-03-13T08:29:31.829Z,4.68
2023-03-13T08:32:18.314Z,4.07
2023-03-13T08:35:05.470Z,3.28
2023-03-13T08:37:53.258Z,3.80
2023-03-13T08:40:39.770Z,4.47
2023-03-13T08:43:26.146Z,4.20
2023-03-13T08:46:14.752Z,3.35
2023-03-13T08:49:01.220Z,3.42
2023-03-13T08:51:47.502Z,4.00
2023-03-13T08:54:34.220Z,3.85
2023-03-13T08:57:20.365Z,3.67
2023-03-13T09:00:08.019Z,3.10
2023-03-13T09:02:58.466Z,2.17
2023-03-13T09:05:55.635Z,4.60
2023-03-13T09:08:43.398Z,3.00
2023-03-13T09:11:29.856Z,2.72
2023-03-13T09:14:16.254Z,2.25
2023-03-13T09:17:03.803Z,2.80
2023-03-13T09:20:00.307Z,2.28
2023-03-13T09:22:47.539Z,2.08
2023-03-13T09:25:33.889Z,2.10
2023-03-13T09:28:20.097Z,1.77
2023-03-13T09:31:10.865Z,1.92
2023-03-13T09:33:57.682Z,1.95
2023-03-13T09:36:45.399Z,2.78
2023-03-13T09:39:31.808Z,1.85
2023-03-13T09:42:20.873Z,1.80
2023-03-13T09:45:09.646Z,2.20
2023-03-13T09:47:59.696Z,1.23
2023-03-13T09:50:56.785Z,1.15
2023-03-13T09:53:50.606Z,1.35
2023-03-13T09:56:44.213Z,1.13
2023-03-13T09:59:38.689Z,1.45
2023-03-13T10:02:30.808Z,1.70
2023-03-13T10:05:21.700Z,1.90
2023-03-13T10:08:16.710Z,1.58
2023-03-13T10:11:07.712Z,1.45
2023-03-13T10:14:01.347Z,1.77
2023-03-13T10:16:52.550Z,1.30
2023-03-13T10:19:42.298Z,1.15
2023-03-13T10:22:32.229Z,1.27
2023-03-13T10:25:28.347Z,1.65
2023-03-13T10:28:17.364Z,1.88
2023-03-13T10:31:11.136Z,1.45
2023-03-13T10:34:06.981Z,1.65
2023-03-13T10:36:58.196Z,2.05
2023-03-13T10:39:44.490Z,1.75
2023-03-13T10:42:34.450Z,1.95
2023-03-13T10:45:25.336Z,1.88
2023-03-13T10:48:14.788Z,1.55
2023-03-13T10:51:02.418Z,1.35
2023-03-13T10:53:51.469Z,1.58
2023-03-13T10:56:37.883Z,1.50
2023-03-13T10:59:26.675Z,1.30
2023-03-13T11:02:27.735Z,1.52
2023-03-13T11:05:33.734Z,1.42
2023-03-13T11:08:23.279Z,1.50
2023-03-13T11:11:19.023Z,1.40
2023-03-13T11:14:10.614Z,1.70
2023-03-13T11:17:01.696Z,1.25
2023-03-13T11:19:59.374Z,1.30
2023-03-13T11:22:56.464Z,1.30
2023-03-13T11:25:51.887Z,1.55
2023-03-13T11:28:50.385Z,1.88
2023-03-13T11:31:40.949Z,1.65
2023-03-13T11:34:38.891Z,1.08
2023-03-13T11:37:32.220Z,1.30
2023-03-13T11:40:23.081Z,1.27
2023-03-13T11:43:25.325Z,1.20
2023-03-13T11:46:26.923Z,1.30
2023-03-13T11:49:42.645Z,1.20
2023-03-13T11:52:43.955Z,1.38
2023-03-13T11:55:49.302Z,1.15
2023-03-13T11:59:03.887Z,1.95
2023-03-13T12:01:54.289Z,2.10
2023-03-13T12:04:45.253Z,1.10
2023-03-13T12:07:36.214Z,1.33
2023-03-13T12:10:28.438Z,1.50
2023-03-13T12:13:20.301Z,1.77
2023-03-13T12:16:12.598Z,2.30
2023-03-13T12:18:59.306Z,1.55
2023-03-13T12:21:50.360Z,1.70
2023-03-13T12:24:40.977Z,2.00
2023-03-13T12:27:34.167Z,1.80
2023-03-13T12:30:27.997Z,2.58
2023-03-13T12:33:23.582Z,1.92
2023-03-13T12:36:15.594Z,1.85
2023-03-13T12:39:11.654Z,2.28
2023-03-13T12:42:17.641Z,3.88
2023-03-13T12:45:07.838Z,1.73
2023-03-13T12:48:21.498Z,1.85
2023-03-13T12:51:21.688Z,2.05
2023-03-13T12:54:31.820Z,1.77
2023-03-13T12:57:40.081Z,2.00
2023-03-13T13:00:31.118Z,2.78
2023-03-13T13:03:25.997Z,2.35
2023-03-13T13:06:14.764Z,2.67
2023-03-13T13:09:15.531Z,2.35
2023-03-13T13:12:04.229Z,2.03
2023-03-13T13:15:05.863Z,1.90
2023-03-13T13:18:15.778Z,2.47
2023-03-13T13:21:30.981Z,2.38
2023-03-13T13:24:43.122Z,2.25
2023-03-13T13:27:47.513Z,2.42
2023-03-13T13:30:35.241Z,2.30
2023-03-13T13:33:42.046Z,3.53
2023-03-13T13:36:41.288Z,3.15
2023-03-13T13:39:36.776Z,2.40
2023-03-13T13:42:49.370Z,3.55
2023-03-13T13:45:37.565Z,2.90
2023-03-13T13:48:31.016Z,3.42
2023-03-13T13:51:25.109Z,3.47
2023-03-13T13:54:33.854Z,2.70
2023-03-13T13:57:22.810Z,3.80
2023-03-13T14:00:20.702Z,4.00
2023-03-13T14:03:19.111Z,3.70
2023-03-13T14:06:18.081Z,3.50
2023-03-13T14:09:16.799Z,3.13
2023-03-13T14:12:03.022Z,3.03
2023-03-13T14:14:49.964Z,3.25
2023-03-13T14:17:40.328Z,2.70
2023-03-13T14:20:29.667Z,3.22
2023-03-13T14:23:16.424Z,2.63
2023-03-13T14:26:13.335Z,3.47
2023-03-13T14:29:02.765Z,3.50
2023-03-13T14:31:53.604Z,3.45
2023-03-13T14:34:40.520Z,3.22
2023-03-13T14:37:37.003Z,2.85
2023-03-13T14:40:28.988Z,3.55
2023-03-13T14:43:24.453Z,2.90
2023-03-13T14:46:16.614Z,3.95
2023-03-13T14:49:09.500Z,3.00
2023-03-13T14:52:02.764Z,3.30
2023-03-13T14:54:56.815Z,3.72
2023-03-13T14:57:56.105Z,2.75
2023-03-13T15:00:45.478Z,3.45
2023-03-13T15:03:34.163Z,3.50
2023-03-13T15:06:22.338Z,3.08
2023-03-13T15:09:18.369Z,3.53
2023-03-13T15:12:06.671Z,3.75
2023-03-13T15:14:54.031Z,3.55
2023-03-13T15:17:41.989Z,3.92
2023-03-13T15:20:29.396Z,3.33
2023-03-13T15:23:15.975Z,2.85
2023-03-13T15:26:02.271Z,2.42
2023-03-13T15:28:49.093Z,3.35
2023-03-13T15:31:35.781Z,3.40
2023-03-13T15:34:25.482Z,4.50
2023-03-13T15:37:13.185Z,3.28
2023-03-13T15:39:59.773Z,3.58
2023-03-13T15:42:46.028Z,3.25
2023-03-13T15:45:32.724Z,3.13
2023-03-13T15:48:21.374Z,2.63
2023-03-13T15:51:16.998Z,3.53
2023-03-13T15:54:06.598Z,3.20
2023-03-13T15:56:53.790Z,3.80
2023-03-13T15:59:40.175Z,3.67
2023-03-13T16:02:26.688Z,4.15
2023-03-13T16:05:13.438Z,3.40
2023-03-13T16:08:00.845Z,3.75
2023-03-13T16:10:47.878Z,3.17
2023-03-13T16:13:34.190Z,3.42
2023-03-13T16:16:22.559Z,7.57
2023-03-13T16:19:11.059Z,4.10
2023-03-13T16:21:57.549Z,3.67
2023-03-13T16:24:45.446Z,4.07
2023-03-13T16:27:31.881Z,3.83
2023-03-13T16:30:24.337Z,4.80
2023-03-13T16:33:13.807Z,3.90
2023-03-13T16:35:59.993Z,4.57
2023-03-13T16:38:47.225Z,4.30
2023-03-13T16:41:34.943Z,4.22
2023-03-13T16:44:21.043Z,3.45
2023-03-13T16:47:20.052Z,3.90
2023-03-13T16:50:18.152Z,4.05
2023-03-13T16:53:05.056Z,4.82
2023-03-13T16:55:51.610Z,4.55
2023-03-13T16:58:39.375Z,4.63
2023-03-13T17:01:26.279Z,3.67
2023-03-13T17:04:13.416Z,4.53
2023-03-13T17:06:59.883Z,4.80
2023-03-13T17:09:46.650Z,5.50
2023-03-13T17:12:32.983Z,5.40
2023-03-13T17:15:21.689Z,4.65
2023-03-13T17:18:08.063Z,5.32
2023-03-13T17:20:55.012Z,4.70
2023-03-13T17:23:41.463Z,4.68
2023-03-13T17:26:30.951Z,5.25
2023-03-13T17:29:19.811Z,4.33
2023-03-13T17:32:07.933Z,4.15
2023-03-13T17:34:54.494Z,5.57
2023-03-13T17:37:44.509Z,5.45
2023-03-13T17:40:32.284Z,5.50
2023-03-13T17:43:18.740Z,5.30
2023-03-13T17:46:09.402Z,5.50
2023-03-13T17:48:57.343Z,5.65
2023-03-13T17:51:46.265Z,5.50
2023-03-13T17:54:32.505Z,6.00
2023-03-13T17:57:21.371Z,5.43
2023-03-13T18:00:20.034Z,4.88
2023-03-13T18:03:07.545Z,6.75
2023-03-13T18:05:55.697Z,5.35
2023-03-13T18:08:42.049Z,4.70
2023-03-13T18:11:28.727Z,6.40
2023-03-13T18:14:15.472Z,4.50
2023-03-13T18:17:02.085Z,6.57
2023-03-13T18:19:49.495Z,5.05
2023-03-13T18:22:37.750Z,4.88
2023-03-13T18:25:23.773Z,4.95
2023-03-13T18:28:12.064Z,6.75
2023-03-13T18:30:58.642Z,5.40
2023-03-13T18:33:45.948Z,5.30
2023-03-13T18:36:34.254Z,4.97
2023-03-13T18:39:22.159Z,5.70
2023-03-13T18:42:10.236Z,4.82
2023-03-13T18:44:56.482Z,6.07
2023-03-13T18:47:42.719Z,5.18
2023-03-13T18:50:31.769Z,5.45
2023-03-13T18:53:18.052Z,6.00
2023-03-13T18:56:16.561Z,7.22
2023-03-13T18:59:03.351Z,4.93
2023-03-13T19:01:51.036Z,5.72
2023-03-13T19:04:37.533Z,6.55
2023-03-13T19:07:26.876Z,4.55
2023-03-13T19:10:20.858Z,6.10
2023-03-13T19:13:08.805Z,4.88
2023-03-13T19:15:54.973Z,5.22
2023-03-13T19:18:41.133Z,4.65
2023-03-13T19:21:29.416Z,7.13
2023-03-13T19:24:15.936Z,5.28
2023-03-13T19:27:03.061Z,5.30
2023-03-13T19:29:50.333Z,5.40
2023-03-13T19:32:37.639Z,5.75
2023-03-13T19:35:24.024Z,5.53
2023-03-13T19:38:12.955Z,11.35
2023-03-13T19:40:58.948Z,8.48
2023-03-13T19:43:47.767Z,7.05
2023-03-13T19:46:37.583Z,6.25
2023-03-13T19:49:24.205Z,5.88
2023-03-13T19:52:10.547Z,5.38
2023-03-13T19:55:05.137Z,5.95
2023-03-13T19:57:52.067Z,8.52
2023-03-13T20:00:38.840Z,6.53
2023-03-13T20:03:26.637Z,6.20
2023-03-13T20:06:18.435Z,6.13
2023-03-13T20:09:06.980Z,6.25
2023-03-13T20:11:53.306Z,5.40
2023-03-13T20:14:40.556Z,5.38
2023-03-13T20:17:26.903Z,5.90
2023-03-13T20:20:15.990Z,5.53
2023-03-13T20:23:02.593Z,5.32
2023-03-13T20:25:48.935Z,4.72
2023-03-13T20:28:35.649Z,5.85
2023-03-13T20:31:25.253Z,5.78
2023-03-13T20:34:11.921Z,4.78
2023-03-13T20:36:59.988Z,5.60
2023-03-13T20:39:46.418Z,4.72
2023-03-13T20:42:33.035Z,4.95
2023-03-13T20:45:19.395Z,6.13
2023-03-13T20:48:06.273Z,5.25
2023-03-13T20:50:53.902Z,4.97
2023-03-13T20:53:42.642Z,5.40
2023-03-13T20:56:29.004Z,4.78
2023-03-13T20:59:15.665Z,4.60
2023-03-13T21:02:02.019Z,4.45
2023-03-13T21:04:48.514Z,4.97
2023-03-13T21:07:34.869Z,4.65
2023-03-13T21:10:22.914Z,5.15
2023-03-13T21:13:10.710Z,4.38
2023-03-13T21:16:01.287Z,4.50
2023-03-13T21:18:49.521Z,4.70
2023-03-13T21:21:35.673Z,4.55
2023-03-13T21:24:22.061Z,3.78
2023-03-13T21:27:09.820Z,4.40
2023-03-13T21:29:56.537Z,4.40
2023-03-13T21:32:42.978Z,5.22
2023-03-13T21:35:29.502Z,4.32
2023-03-13T21:38:15.977Z,4.32
2023-03-13T21:41:07.228Z,5.15
2023-03-13T21:43:55.874Z,5.60
2023-03-13T21:46:42.224Z,4.88
2023-03-13T21:49:28.568Z,6.00
2023-03-13T21:52:14.842Z,5.30
2023-03-13T21:55:01.469Z,5.45
2023-03-13T21:57:47.863Z,4.85
2023-03-13T22:00:35.523Z,4.18
2023-03-13T22:03:22.243Z,5.45
2023-03-13T22:06:12.964Z,4.97
2023-03-13T22:08:59.765Z,4.97
2023-03-13T22:11:46.051Z,5.00
2023-03-13T22:14:32.220Z,4.20
2023-03-13T22:17:20.426Z,4.75
2023-03-13T22:20:08.314Z,4.28
2023-03-13T22:22:54.717Z,5.18
2023-03-13T22:25:42.365Z,4.38
2023-03-13T22:28:28.561Z,4.35
2023-03-13T22:31:14.872Z,4.78
2023-03-13T22:34:02.391Z,4.93
2023-03-13T22:36:48.630Z,5.70
2023-03-13T22:39:36.127Z,5.05
2023-03-13T22:42:22.734Z,5.45
2023-03-13T22:45:10.365Z,5.07
2023-03-13T22:47:56.464Z,4.35
2023-03-13T22:50:44.311Z,4.95
2023-03-13T22:53:31.173Z,4.18
2023-03-13T22:56:17.585Z,3.80
2023-03-13T22:59:04.272Z,5.32
2023-03-13T23:01:50.529Z,4.78
2023-03-13T23:04:36.854Z,5.05
2023-03-13T23:07:24.657Z,4.28
2023-03-13T23:10:12.426Z,3.95
2023-03-13T23:12:58.785Z,3.88
2023-03-13T23:15:55.506Z,4.47
2023-03-13T23:18:42.811Z,3.83
2023-03-13T23:21:29.022Z,4.40
2023-03-13T23:24:16.805Z,4.65
2023-03-13T23:27:02.917Z,4.53
2023-03-13T23:29:51.504Z,5.35
2023-03-13T23:32:38.973Z,4.90
2023-03-13T23:35:25.820Z,4.28
2023-03-13T23:38:12.665Z,4.57
2023-03-13T23:41:00.398Z,4.90
2023-03-13T23:43:47.332Z,5.43
2023-03-13T23:46:33.931Z,4.57
2023-03-13T23:49:20.309Z,5.57
2023-03-13T23:52:08.087Z,4.85
2023-03-13T23:54:54.856Z,4.95
2023-03-13T23:57:42.673Z,4.45
